sensor_id;sensor_type;location;lat;lon;timestamp;P1;durP1;ratioP1;P2;durP2;ratioP2
6269;SDS011;3168;51.684;6.954;2022-08-03T00:01:18;1.70;;;1.60;;
6269;SDS011;3168;51.684;6.954;2022-08-03T00:03:56;1.90;;;1.80;;
6269;SDS011;3168;51.684;6.954;2022-08-03T00:06:34;1.53;;;1.50;;
6269;SDS011;3168;51.684;6.954;2022-08-03T00:09:13;2.30;;;2.20;;
6269;SDS011;3168;51.684;6.954;2022-08-03T00:11:51;1.57;;;1.57;;
6269;SDS011;3168;51.684;6.954;2022-08-03T00:14:29;2.00;;;1.67;;
6269;SDS011;3168;51.684;6.954;2022-08-03T00:17:07;1.70;;;1.60;;
6269;SDS011;3168;51.684;6.954;2022-08-03T00:19:45;1.83;;;1.73;;
6269;SDS011;3168;51.684;6.954;2022-08-03T00:22:23;1.50;;;1.50;;
6269;SDS011;3168;51.684;6.954;2022-08-03T00:25:01;1.20;;;1.20;;
6269;SDS011;3168;51.684;6.954;2022-08-03T00:27:40;1.83;;;1.83;;
6269;SDS011;3168;51.684;6.954;2022-08-03T00:30:18;1.67;;;1.67;;
6269;SDS011;3168;51.684;6.954;2022-08-03T00:32:56;2.00;;;1.90;;
6269;SDS011;3168;51.684;6.954;2022-08-03T00:35:34;2.20;;;2.10;;
6269;SDS011;3168;51.684;6.954;2022-08-03T00:38:12;9.10;;;1.50;;
6269;SDS011;3168;51.684;6.954;2022-08-03T00:40:51;1.83;;;1.73;;
6269;SDS011;3168;51.684;6.954;2022-08-03T00:43:29;1.53;;;1.53;;
6269;SDS011;3168;51.684;6.954;2022-08-03T00:46:07;1.70;;;1.70;;
6269;SDS011;3168;51.684;6.954;2022-08-03T00:48:45;1.27;;;1.27;;
6269;SDS011;3168;51.684;6.954;2022-08-03T00:51:23;1.63;;;1.63;;
6269;SDS011;3168;51.684;6.954;2022-08-03T00:54:01;1.70;;;1.63;;
6269;SDS011;3168;51.684;6.954;2022-08-03T00:56:39;1.70;;;1.60;;
6269;SDS011;3168;51.684;6.954;2022-08-03T00:59:17;1.57;;;1.47;;
6269;SDS011;3168;51.684;6.954;2022-08-03T01:01:56;1.90;;;1.90;;
6269;SDS011;3168;51.684;6.954;2022-08-03T01:04:34;1.70;;;1.60;;
6269;SDS011;3168;51.684;6.954;2022-08-03T01:07:16;2.07;;;2.07;;
6269;SDS011;3168;51.684;6.954;2022-08-03T01:09:56;1.83;;;1.73;;
6269;SDS011;3168;51.684;6.954;2022-08-03T01:12:38;1.77;;;1.77;;
6269;SDS011;3168;51.684;6.954;2022-08-03T01:15:18;1.83;;;1.73;;
6269;SDS011;3168;51.684;6.954;2022-08-03T01:17:56;1.87;;;1.87;;
6269;SDS011;3168;51.684;6.954;2022-08-03T01:20:33;1.60;;;1.50;;
6269;SDS011;3168;51.684;6.954;2022-08-03T01:23:18;1.40;;;1.40;;
6269;SDS011;3168;51.684;6.954;2022-08-03T01:26:08;1.63;;;1.53;;
6269;SDS011;3168;51.684;6.954;2022-08-03T01:29:07;1.90;;;1.90;;
6269;SDS011;3168;51.684;6.954;2022-08-03T01:31:48;2.30;;;2.20;;
6269;SDS011;3168;51.684;6.954;2022-08-03T01:34:27;1.63;;;1.53;;
6269;SDS011;3168;51.684;6.954;2022-08-03T01:37:04;1.53;;;1.53;;
6269;SDS011;3168;51.684;6.954;2022-08-03T01:39:41;1.97;;;1.87;;
6269;SDS011;3168;51.684;6.954;2022-08-03T01:42:20;1.50;;;1.50;;
6269;SDS011;3168;51.684;6.954;2022-08-03T01:44:58;1.37;;;1.37;;
6269;SDS011;3168;51.684;6.954;2022-08-03T01:47:36;1.97;;;1.97;;
6269;SDS011;3168;51.684;6.954;2022-08-03T01:50:14;1.87;;;1.77;;
6269;SDS011;3168;51.684;6.954;2022-08-03T01:52:52;1.50;;;1.50;;
6269;SDS011;3168;51.684;6.954;2022-08-03T01:55:30;1.97;;;1.87;;
6269;SDS011;3168;51.684;6.954;2022-08-03T01:58:08;2.10;;;2.00;;
6269;SDS011;3168;51.684;6.954;2022-08-03T02:00:48;1.60;;;1.60;;
6269;SDS011;3168;51.684;6.954;2022-08-03T02:03:25;2.23;;;2.13;;
6269;SDS011;3168;51.684;6.954;2022-08-03T02:06:04;1.70;;;1.70;;
6269;SDS011;3168;51.684;6.954;2022-08-03T02:08:42;1.90;;;1.80;;
6269;SDS011;3168;51.684;6.954;2022-08-03T02:11:20;2.07;;;2.07;;
6269;SDS011;3168;51.684;6.954;2022-08-03T02:13:59;1.53;;;1.43;;
6269;SDS011;3168;51.684;6.954;2022-08-03T02:16:36;2.53;;;1.90;;
6269;SDS011;3168;51.684;6.954;2022-08-03T02:19:14;1.33;;;1.33;;
6269;SDS011;3168;51.684;6.954;2022-08-03T02:21:52;1.83;;;1.73;;
6269;SDS011;3168;51.684;6.954;2022-08-03T02:24:30;2.30;;;2.20;;
6269;SDS011;3168;51.684;6.954;2022-08-03T02:27:12;2.23;;;2.13;;
6269;SDS011;3168;51.684;6.954;2022-08-03T02:29:48;1.30;;;1.20;;
6269;SDS011;3168;51.684;6.954;2022-08-03T02:32:28;2.37;;;2.17;;
6269;SDS011;3168;51.684;6.954;2022-08-03T02:35:10;1.90;;;1.80;;
6269;SDS011;3168;51.684;6.954;2022-08-03T02:37:47;1.77;;;1.77;;
6269;SDS011;3168;51.684;6.954;2022-08-03T02:40:25;1.73;;;1.63;;
6269;SDS011;3168;51.684;6.954;2022-08-03T02:43:04;2.00;;;1.90;;
6269;SDS011;3168;51.684;6.954;2022-08-03T02:45:41;1.57;;;1.57;;
6269;SDS011;3168;51.684;6.954;2022-08-03T02:48:20;1.80;;;1.80;;
6269;SDS011;3168;51.684;6.954;2022-08-03T02:50:59;2.20;;;2.10;;
6269;SDS011;3168;51.684;6.954;2022-08-03T02:53:38;2.10;;;2.00;;
6269;SDS011;3168;51.684;6.954;2022-08-03T02:56:16;3.20;;;3.00;;
6269;SDS011;3168;51.684;6.954;2022-08-03T02:58:55;2.50;;;2.30;;
6269;SDS011;3168;51.684;6.954;2022-08-03T03:01:32;2.20;;;2.10;;
6269;SDS011;3168;51.684;6.954;2022-08-03T03:04:11;1.87;;;1.80;;
6269;SDS011;3168;51.684;6.954;2022-08-03T03:06:49;1.87;;;1.77;;
6269;SDS011;3168;51.684;6.954;2022-08-03T03:09:27;2.37;;;2.20;;
6269;SDS011;3168;51.684;6.954;2022-08-03T03:12:06;2.27;;;2.17;;
6269;SDS011;3168;51.684;6.954;2022-08-03T03:14:44;2.33;;;2.23;;
6269;SDS011;3168;51.684;6.954;2022-08-03T03:17:22;8.43;;;2.10;;
6269;SDS011;3168;51.684;6.954;2022-08-03T03:20:00;2.23;;;2.13;;
6269;SDS011;3168;51.684;6.954;2022-08-03T03:22:38;2.80;;;2.60;;
6269;SDS011;3168;51.684;6.954;2022-08-03T03:25:16;1.20;;;1.20;;
6269;SDS011;3168;51.684;6.954;2022-08-03T03:27:54;1.90;;;1.80;;
6269;SDS011;3168;51.684;6.954;2022-08-03T03:30:33;2.10;;;2.00;;
6269;SDS011;3168;51.684;6.954;2022-08-03T03:33:11;2.73;;;2.63;;
6269;SDS011;3168;51.684;6.954;2022-08-03T03:35:49;1.37;;;1.37;;
6269;SDS011;3168;51.684;6.954;2022-08-03T03:38:27;2.07;;;1.97;;
6269;SDS011;3168;51.684;6.954;2022-08-03T03:41:05;1.90;;;1.80;;
6269;SDS011;3168;51.684;6.954;2022-08-03T03:43:44;2.63;;;1.70;;
6269;SDS011;3168;51.684;6.954;2022-08-03T03:46:22;2.50;;;2.30;;
6269;SDS011;3168;51.684;6.954;2022-08-03T03:49:00;2.23;;;2.13;;
6269;SDS011;3168;51.684;6.954;2022-08-03T03:51:38;2.27;;;2.17;;
6269;SDS011;3168;51.684;6.954;2022-08-03T03:54:16;1.83;;;1.73;;
6269;SDS011;3168;51.684;6.954;2022-08-03T03:56:54;2.53;;;2.43;;
6269;SDS011;3168;51.684;6.954;2022-08-03T03:59:36;2.37;;;2.27;;
6269;SDS011;3168;51.684;6.954;2022-08-03T04:02:11;1.93;;;1.87;;
6269;SDS011;3168;51.684;6.954;2022-08-03T04:04:49;1.70;;;1.60;;
6269;SDS011;3168;51.684;6.954;2022-08-03T04:07:36;2.00;;;1.90;;
6269;SDS011;3168;51.684;6.954;2022-08-03T04:10:19;1.70;;;1.60;;
6269;SDS011;3168;51.684;6.954;2022-08-03T04:13:02;2.67;;;2.30;;
6269;SDS011;3168;51.684;6.954;2022-08-03T04:15:40;3.00;;;2.70;;
6269;SDS011;3168;51.684;6.954;2022-08-03T04:18:18;2.60;;;2.50;;
6269;SDS011;3168;51.684;6.954;2022-08-03T04:20:58;1.83;;;1.73;;
6269;SDS011;3168;51.684;6.954;2022-08-03T04:23:37;2.00;;;1.90;;
6269;SDS011;3168;51.684;6.954;2022-08-03T04:26:14;2.17;;;2.07;;
6269;SDS011;3168;51.684;6.954;2022-08-03T04:28:52;2.50;;;2.40;;
6269;SDS011;3168;51.684;6.954;2022-08-03T04:31:30;1.90;;;1.80;;
6269;SDS011;3168;51.684;6.954;2022-08-03T04:34:08;1.87;;;1.77;;
6269;SDS011;3168;51.684;6.954;2022-08-03T04:36:47;2.70;;;2.50;;
6269;SDS011;3168;51.684;6.954;2022-08-03T04:39:25;2.40;;;2.30;;
6269;SDS011;3168;51.684;6.954;2022-08-03T04:42:03;2.20;;;1.77;;
6269;SDS011;3168;51.684;6.954;2022-08-03T04:44:41;5.57;;;2.10;;
6269;SDS011;3168;51.684;6.954;2022-08-03T04:47:19;2.30;;;2.20;;
6269;SDS011;3168;51.684;6.954;2022-08-03T04:49:59;2.40;;;2.30;;
6269;SDS011;3168;51.684;6.954;2022-08-03T04:52:36;2.90;;;2.70;;
6269;SDS011;3168;51.684;6.954;2022-08-03T04:58:03;2.93;;;2.73;;
6269;SDS011;3168;51.684;6.954;2022-08-03T05:00:41;2.67;;;2.57;;
6269;SDS011;3168;51.684;6.954;2022-08-03T05:03:19;3.33;;;3.07;;
6269;SDS011;3168;51.684;6.954;2022-08-03T05:05:57;2.23;;;2.03;;
6269;SDS011;3168;51.684;6.954;2022-08-03T05:08:35;3.17;;;3.07;;
6269;SDS011;3168;51.684;6.954;2022-08-03T05:11:14;2.83;;;2.63;;
6269;SDS011;3168;51.684;6.954;2022-08-03T05:13:52;2.97;;;2.77;;
6269;SDS011;3168;51.684;6.954;2022-08-03T05:16:30;2.40;;;2.30;;
6269;SDS011;3168;51.684;6.954;2022-08-03T05:19:08;2.90;;;2.80;;
6269;SDS011;3168;51.684;6.954;2022-08-03T05:21:46;2.63;;;2.43;;
6269;SDS011;3168;51.684;6.954;2022-08-03T05:24:24;2.47;;;2.37;;
6269;SDS011;3168;51.684;6.954;2022-08-03T05:27:02;2.70;;;2.60;;
6269;SDS011;3168;51.684;6.954;2022-08-03T05:29:40;2.67;;;2.53;;
6269;SDS011;3168;51.684;6.954;2022-08-03T05:32:19;2.20;;;2.10;;
6269;SDS011;3168;51.684;6.954;2022-08-03T05:34:57;4.10;;;3.10;;
6269;SDS011;3168;51.684;6.954;2022-08-03T05:37:35;5.60;;;3.63;;
6269;SDS011;3168;51.684;6.954;2022-08-03T05:40:13;2.33;;;2.23;;
6269;SDS011;3168;51.684;6.954;2022-08-03T05:42:51;2.50;;;2.40;;
6269;SDS011;3168;51.684;6.954;2022-08-03T05:45:29;2.73;;;2.53;;
6269;SDS011;3168;51.684;6.954;2022-08-03T05:48:08;3.23;;;3.03;;
6269;SDS011;3168;51.684;6.954;2022-08-03T05:50:46;3.53;;;3.23;;
6269;SDS011;3168;51.684;6.954;2022-08-03T05:53:24;9.20;;;3.00;;
6269;SDS011;3168;51.684;6.954;2022-08-03T05:56:02;3.70;;;3.40;;
6269;SDS011;3168;51.684;6.954;2022-08-03T05:58:43;2.80;;;2.53;;
6269;SDS011;3168;51.684;6.954;2022-08-03T06:01:21;7.60;;;3.70;;
6269;SDS011;3168;51.684;6.954;2022-08-03T06:03:59;8.73;;;3.40;;
6269;SDS011;3168;51.684;6.954;2022-08-03T06:06:37;3.00;;;2.80;;
6269;SDS011;3168;51.684;6.954;2022-08-03T06:09:15;3.63;;;2.00;;
6269;SDS011;3168;51.684;6.954;2022-08-03T06:11:53;2.57;;;2.47;;
6269;SDS011;3168;51.684;6.954;2022-08-03T06:14:31;2.50;;;2.33;;
6269;SDS011;3168;51.684;6.954;2022-08-03T06:17:09;3.23;;;2.87;;
6269;SDS011;3168;51.684;6.954;2022-08-03T06:19:50;5.40;;;2.87;;
6269;SDS011;3168;51.684;6.954;2022-08-03T06:22:26;2.57;;;2.47;;
6269;SDS011;3168;51.684;6.954;2022-08-03T06:25:04;3.07;;;2.73;;
6269;SDS011;3168;51.684;6.954;2022-08-03T06:27:43;2.73;;;2.63;;
6269;SDS011;3168;51.684;6.954;2022-08-03T06:30:21;3.90;;;2.70;;
6269;SDS011;3168;51.684;6.954;2022-08-03T06:32:59;3.20;;;2.60;;
6269;SDS011;3168;51.684;6.954;2022-08-03T06:35:37;3.63;;;2.90;;
6269;SDS011;3168;51.684;6.954;2022-08-03T06:38:16;3.03;;;2.83;;
6269;SDS011;3168;51.684;6.954;2022-08-03T06:40:55;2.47;;;2.37;;
6269;SDS011;3168;51.684;6.954;2022-08-03T06:43:34;2.63;;;2.43;;
6269;SDS011;3168;51.684;6.954;2022-08-03T06:46:12;6.23;;;2.23;;
6269;SDS011;3168;51.684;6.954;2022-08-03T06:48:50;2.20;;;2.20;;
6269;SDS011;3168;51.684;6.954;2022-08-03T06:51:28;2.20;;;2.10;;
6269;SDS011;3168;51.684;6.954;2022-08-03T06:54:07;2.70;;;2.60;;
6269;SDS011;3168;51.684;6.954;2022-08-03T06:56:45;2.90;;;2.80;;
6269;SDS011;3168;51.684;6.954;2022-08-03T06:59:23;3.53;;;2.67;;
6269;SDS011;3168;51.684;6.954;2022-08-03T07:02:01;2.50;;;2.30;;
6269;SDS011;3168;51.684;6.954;2022-08-03T07:04:39;3.27;;;3.07;;
6269;SDS011;3168;51.684;6.954;2022-08-03T07:07:17;2.27;;;2.10;;
6269;SDS011;3168;51.684;6.954;2022-08-03T07:09:55;2.07;;;2.07;;
6269;SDS011;3168;51.684;6.954;2022-08-03T07:12:34;3.00;;;2.00;;
6269;SDS011;3168;51.684;6.954;2022-08-03T07:15:12;2.10;;;2.00;;
6269;SDS011;3168;51.684;6.954;2022-08-03T07:17:50;5.07;;;2.83;;
6269;SDS011;3168;51.684;6.954;2022-08-03T07:20:28;1.50;;;1.50;;
6269;SDS011;3168;51.684;6.954;2022-08-03T07:23:06;1.53;;;1.43;;
6269;SDS011;3168;51.684;6.954;2022-08-03T07:25:44;3.90;;;2.43;;
6269;SDS011;3168;51.684;6.954;2022-08-03T07:28:22;3.43;;;2.40;;
6269;SDS011;3168;51.684;6.954;2022-08-03T07:31:00;2.43;;;2.30;;
6269;SDS011;3168;51.684;6.954;2022-08-03T07:33:38;2.37;;;2.17;;
6269;SDS011;3168;51.684;6.954;2022-08-03T07:36:16;2.03;;;1.93;;
6269;SDS011;3168;51.684;6.954;2022-08-03T07:38:55;1.47;;;1.47;;
6269;SDS011;3168;51.684;6.954;2022-08-03T07:41:33;1.80;;;1.70;;
6269;SDS011;3168;51.684;6.954;2022-08-03T07:44:11;1.60;;;1.60;;
6269;SDS011;3168;51.684;6.954;2022-08-03T07:46:49;1.80;;;1.80;;
6269;SDS011;3168;51.684;6.954;2022-08-03T07:49:27;1.87;;;1.77;;
6269;SDS011;3168;51.684;6.954;2022-08-03T07:52:05;1.47;;;1.37;;
6269;SDS011;3168;51.684;6.954;2022-08-03T07:54:49;1.97;;;1.87;;
6269;SDS011;3168;51.684;6.954;2022-08-03T07:57:27;2.63;;;2.40;;
6269;SDS011;3168;51.684;6.954;2022-08-03T08:00:10;1.80;;;1.70;;
6269;SDS011;3168;51.684;6.954;2022-08-03T08:02:45;1.67;;;1.60;;
6269;SDS011;3168;51.684;6.954;2022-08-03T08:05:22;3.90;;;2.17;;
6269;SDS011;3168;51.684;6.954;2022-08-03T08:08:01;2.90;;;1.30;;
6269;SDS011;3168;51.684;6.954;2022-08-03T08:10:39;1.80;;;1.70;;
6269;SDS011;3168;51.684;6.954;2022-08-03T08:13:17;6.10;;;2.33;;
6269;SDS011;3168;51.684;6.954;2022-08-03T08:15:55;2.20;;;1.97;;
6269;SDS011;3168;51.684;6.954;2022-08-03T08:18:33;2.90;;;2.70;;
6269;SDS011;3168;51.684;6.954;2022-08-03T08:21:11;2.10;;;1.80;;
6269;SDS011;3168;51.684;6.954;2022-08-03T08:23:49;1.43;;;1.43;;
6269;SDS011;3168;51.684;6.954;2022-08-03T08:26:27;1.77;;;1.67;;
6269;SDS011;3168;51.684;6.954;2022-08-03T08:29:06;2.93;;;1.77;;
6269;SDS011;3168;51.684;6.954;2022-08-03T08:31:44;1.67;;;1.40;;
6269;SDS011;3168;51.684;6.954;2022-08-03T08:34:22;1.30;;;1.20;;
6269;SDS011;3168;51.684;6.954;2022-08-03T08:37:00;1.70;;;1.60;;
6269;SDS011;3168;51.684;6.954;2022-08-03T08:39:38;4.20;;;1.53;;
6269;SDS011;3168;51.684;6.954;2022-08-03T08:42:16;1.30;;;1.20;;
6269;SDS011;3168;51.684;6.954;2022-08-03T08:44:54;1.43;;;1.33;;
6269;SDS011;3168;51.684;6.954;2022-08-03T08:47:36;1.97;;;1.87;;
6269;SDS011;3168;51.684;6.954;2022-08-03T08:50:11;1.40;;;1.40;;
6269;SDS011;3168;51.684;6.954;2022-08-03T08:52:49;1.67;;;1.57;;
6269;SDS011;3168;51.684;6.954;2022-08-03T08:55:28;1.70;;;1.60;;
6269;SDS011;3168;51.684;6.954;2022-08-03T08:58:06;3.43;;;2.00;;
6269;SDS011;3168;51.684;6.954;2022-08-03T09:00:44;1.23;;;1.23;;
6269;SDS011;3168;51.684;6.954;2022-08-03T09:03:22;2.23;;;1.77;;
6269;SDS011;3168;51.684;6.954;2022-08-03T09:06:00;3.37;;;2.13;;
6269;SDS011;3168;51.684;6.954;2022-08-03T09:08:38;1.70;;;1.60;;
6269;SDS011;3168;51.684;6.954;2022-08-03T09:11:20;1.40;;;1.33;;
6269;SDS011;3168;51.684;6.954;2022-08-03T09:13:58;1.80;;;1.70;;
6269;SDS011;3168;51.684;6.954;2022-08-03T09:16:36;1.53;;;1.53;;
6269;SDS011;3168;51.684;6.954;2022-08-03T09:19:14;1.70;;;1.40;;
6269;SDS011;3168;51.684;6.954;2022-08-03T09:30:18;1.20;;;1.20;;
6269;SDS011;3168;51.684;6.954;2022-08-03T09:33:00;1.30;;;1.30;;
6269;SDS011;3168;51.684;6.954;2022-08-03T09:35:40;1.13;;;1.13;;
6269;SDS011;3168;51.684;6.954;2022-08-03T09:38:19;2.33;;;1.07;;
6269;SDS011;3168;51.684;6.954;2022-08-03T09:40:56;0.80;;;0.80;;
6269;SDS011;3168;51.684;6.954;2022-08-03T09:43:44;1.33;;;1.33;;
6269;SDS011;3168;51.684;6.954;2022-08-03T09:46:13;3.37;;;1.30;;
6269;SDS011;3168;51.684;6.954;2022-08-03T09:48:51;1.20;;;1.10;;
6269;SDS011;3168;51.684;6.954;2022-08-03T09:51:29;1.73;;;1.53;;
6269;SDS011;3168;51.684;6.954;2022-08-03T09:54:07;1.40;;;1.40;;
6269;SDS011;3168;51.684;6.954;2022-08-03T09:56:45;1.20;;;1.20;;
6269;SDS011;3168;51.684;6.954;2022-08-03T09:59:26;9.33;;;1.00;;
6269;SDS011;3168;51.684;6.954;2022-08-03T10:02:02;1.87;;;1.33;;
6269;SDS011;3168;51.684;6.954;2022-08-03T10:04:45;1.07;;;0.97;;
6269;SDS011;3168;51.684;6.954;2022-08-03T10:07:25;1.10;;;1.10;;
6269;SDS011;3168;51.684;6.954;2022-08-03T10:10:03;0.93;;;0.93;;
6269;SDS011;3168;51.684;6.954;2022-08-03T10:12:42;1.17;;;1.17;;
6269;SDS011;3168;51.684;6.954;2022-08-03T10:15:20;0.90;;;0.90;;
6269;SDS011;3168;51.684;6.954;2022-08-03T10:17:59;1.47;;;0.93;;
6269;SDS011;3168;51.684;6.954;2022-08-03T10:20:42;0.80;;;0.80;;
6269;SDS011;3168;51.684;6.954;2022-08-03T10:23:18;1.80;;;1.27;;
6269;SDS011;3168;51.684;6.954;2022-08-03T10:25:56;1.00;;;1.00;;
6269;SDS011;3168;51.684;6.954;2022-08-03T10:28:36;1.37;;;1.00;;
6269;SDS011;3168;51.684;6.954;2022-08-03T10:31:13;1.90;;;1.80;;
6269;SDS011;3168;51.684;6.954;2022-08-03T10:33:51;1.10;;;1.10;;
6269;SDS011;3168;51.684;6.954;2022-08-03T10:36:29;1.30;;;1.30;;
6269;SDS011;3168;51.684;6.954;2022-08-03T10:39:07;1.00;;;1.00;;
6269;SDS011;3168;51.684;6.954;2022-08-03T10:41:45;1.10;;;1.10;;
6269;SDS011;3168;51.684;6.954;2022-08-03T10:44:24;1.00;;;0.80;;
6269;SDS011;3168;51.684;6.954;2022-08-03T10:47:02;1.20;;;1.20;;
6269;SDS011;3168;51.684;6.954;2022-08-03T10:49:40;1.00;;;1.00;;
6269;SDS011;3168;51.684;6.954;2022-08-03T10:52:18;3.40;;;2.30;;
6269;SDS011;3168;51.684;6.954;2022-08-03T10:54:56;1.07;;;1.07;;
6269;SDS011;3168;51.684;6.954;2022-08-03T10:57:41;7.37;;;1.00;;
6269;SDS011;3168;51.684;6.954;2022-08-03T11:00:20;0.90;;;0.90;;
6269;SDS011;3168;51.684;6.954;2022-08-03T11:03:01;1.33;;;1.23;;
6269;SDS011;3168;51.684;6.954;2022-08-03T11:05:44;0.70;;;0.70;;
6269;SDS011;3168;51.684;6.954;2022-08-03T11:08:25;1.93;;;0.80;;
6269;SDS011;3168;51.684;6.954;2022-08-03T11:14:11;0.77;;;0.77;;
6269;SDS011;3168;51.684;6.954;2022-08-03T11:16:50;0.93;;;0.93;;
6269;SDS011;3168;51.684;6.954;2022-08-03T11:19:41;3.40;;;0.90;;
6269;SDS011;3168;51.684;6.954;2022-08-03T11:22:06;1.50;;;1.40;;
6269;SDS011;3168;51.684;6.954;2022-08-03T11:27:37;3.17;;;1.70;;
6269;SDS011;3168;51.684;6.954;2022-08-03T11:30:23;1.53;;;1.20;;
6269;SDS011;3168;51.684;6.954;2022-08-03T11:33:02;5.13;;;1.70;;
6269;SDS011;3168;51.684;6.954;2022-08-03T11:35:57;1.17;;;1.17;;
6269;SDS011;3168;51.684;6.954;2022-08-03T11:38:19;0.90;;;0.90;;
6269;SDS011;3168;51.684;6.954;2022-08-03T11:40:57;1.70;;;0.80;;
6269;SDS011;3168;51.684;6.954;2022-08-03T11:43:42;0.87;;;0.87;;
6269;SDS011;3168;51.684;6.954;2022-08-03T11:46:21;0.93;;;0.70;;
6269;SDS011;3168;51.684;6.954;2022-08-03T11:49:02;1.00;;;1.00;;
6269;SDS011;3168;51.684;6.954;2022-08-03T11:51:41;0.90;;;0.90;;
6269;SDS011;3168;51.684;6.954;2022-08-03T11:54:19;0.90;;;0.90;;
6269;SDS011;3168;51.684;6.954;2022-08-03T11:56:58;1.37;;;0.80;;
6269;SDS011;3168;51.684;6.954;2022-08-03T11:59:36;0.80;;;0.80;;
6269;SDS011;3168;51.684;6.954;2022-08-03T12:02:14;1.03;;;1.00;;
6269;SDS011;3168;51.684;6.954;2022-08-03T12:04:53;2.63;;;1.33;;
6269;SDS011;3168;51.684;6.954;2022-08-03T12:07:30;0.77;;;0.77;;
6269;SDS011;3168;51.684;6.954;2022-08-03T12:10:09;0.80;;;0.80;;
6269;SDS011;3168;51.684;6.954;2022-08-03T12:12:53;0.70;;;0.70;;
6269;SDS011;3168;51.684;6.954;2022-08-03T12:15:26;0.70;;;0.70;;
6269;SDS011;3168;51.684;6.954;2022-08-03T12:20:50;1.03;;;1.03;;
6269;SDS011;3168;51.684;6.954;2022-08-03T12:23:27;12.80;;;1.33;;
6269;SDS011;3168;51.684;6.954;2022-08-03T12:26:06;4.30;;;1.00;;
6269;SDS011;3168;51.684;6.954;2022-08-03T12:28:47;2.50;;;0.97;;
6269;SDS011;3168;51.684;6.954;2022-08-03T12:31:24;0.70;;;0.70;;
6269;SDS011;3168;51.684;6.954;2022-08-03T12:34:03;2.73;;;1.27;;
6269;SDS011;3168;51.684;6.954;2022-08-03T12:36:49;2.50;;;1.10;;
6269;SDS011;3168;51.684;6.954;2022-08-03T12:39:25;0.77;;;0.77;;
6269;SDS011;3168;51.684;6.954;2022-08-03T12:42:03;2.63;;;1.10;;
6269;SDS011;3168;51.684;6.954;2022-08-03T12:44:42;1.17;;;1.10;;
6269;SDS011;3168;51.684;6.954;2022-08-03T12:47:20;1.57;;;1.10;;
6269;SDS011;3168;51.684;6.954;2022-08-03T12:49:58;1.07;;;1.00;;
6269;SDS011;3168;51.684;6.954;2022-08-03T12:52:41;0.70;;;0.70;;
6269;SDS011;3168;51.684;6.954;2022-08-03T12:55:21;1.23;;;1.10;;
6269;SDS011;3168;51.684;6.954;2022-08-03T12:58:00;0.90;;;0.90;;
6269;SDS011;3168;51.684;6.954;2022-08-03T13:00:38;1.03;;;0.70;;
6269;SDS011;3168;51.684;6.954;2022-08-03T13:03:16;0.97;;;0.97;;
6269;SDS011;3168;51.684;6.954;2022-08-03T13:05:54;0.93;;;0.80;;
6269;SDS011;3168;51.684;6.954;2022-08-03T13:08:32;1.30;;;0.87;;
6269;SDS011;3168;51.684;6.954;2022-08-03T13:11:16;1.10;;;1.10;;
6269;SDS011;3168;51.684;6.954;2022-08-03T13:13:55;1.10;;;1.00;;
6269;SDS011;3168;51.684;6.954;2022-08-03T13:16:34;1.57;;;0.77;;
6269;SDS011;3168;51.684;6.954;2022-08-03T13:19:12;0.60;;;0.60;;
6269;SDS011;3168;51.684;6.954;2022-08-03T13:21:50;0.77;;;0.70;;
6269;SDS011;3168;51.684;6.954;2022-08-03T13:24:28;1.10;;;1.00;;
6269;SDS011;3168;51.684;6.954;2022-08-03T13:27:06;0.70;;;0.70;;
6269;SDS011;3168;51.684;6.954;2022-08-03T13:29:44;0.70;;;0.70;;
6269;SDS011;3168;51.684;6.954;2022-08-03T13:32:22;0.90;;;0.90;;
6269;SDS011;3168;51.684;6.954;2022-08-03T13:35:00;1.77;;;0.97;;
6269;SDS011;3168;51.684;6.954;2022-08-03T13:37:39;0.80;;;0.80;;
6269;SDS011;3168;51.684;6.954;2022-08-03T13:40:18;0.77;;;0.77;;
6269;SDS011;3168;51.684;6.954;2022-08-03T13:42:56;0.60;;;0.60;;
6269;SDS011;3168;51.684;6.954;2022-08-03T13:45:34;1.00;;;1.00;;
6269;SDS011;3168;51.684;6.954;2022-08-03T13:48:12;2.53;;;1.20;;
6269;SDS011;3168;51.684;6.954;2022-08-03T13:50:50;1.00;;;1.00;;
6269;SDS011;3168;51.684;6.954;2022-08-03T13:53:28;3.50;;;1.13;;
6269;SDS011;3168;51.684;6.954;2022-08-03T13:56:06;0.70;;;0.70;;
6269;SDS011;3168;51.684;6.954;2022-08-03T13:58:45;0.80;;;0.80;;
6269;SDS011;3168;51.684;6.954;2022-08-03T14:01:23;0.70;;;0.70;;
6269;SDS011;3168;51.684;6.954;2022-08-03T14:04:01;0.90;;;0.90;;
6269;SDS011;3168;51.684;6.954;2022-08-03T14:06:39;1.00;;;1.00;;
6269;SDS011;3168;51.684;6.954;2022-08-03T14:09:17;0.70;;;0.70;;
6269;SDS011;3168;51.684;6.954;2022-08-03T14:11:55;0.80;;;0.80;;
6269;SDS011;3168;51.684;6.954;2022-08-03T14:14:34;0.70;;;0.70;;
6269;SDS011;3168;51.684;6.954;2022-08-03T14:17:12;0.80;;;0.80;;
6269;SDS011;3168;51.684;6.954;2022-08-03T14:19:50;3.23;;;0.83;;
6269;SDS011;3168;51.684;6.954;2022-08-03T14:22:28;4.27;;;0.70;;
6269;SDS011;3168;51.684;6.954;2022-08-03T14:25:07;1.13;;;0.87;;
6269;SDS011;3168;51.684;6.954;2022-08-03T14:27:33;0.70;;;0.70;;
6269;SDS011;3168;51.684;6.954;2022-08-03T14:30:00;0.77;;;0.77;;
6269;SDS011;3168;51.684;6.954;2022-08-03T14:32:27;0.80;;;0.80;;
6269;SDS011;3168;51.684;6.954;2022-08-03T14:34:52;2.70;;;0.70;;
6269;SDS011;3168;51.684;6.954;2022-08-03T14:37:19;0.87;;;0.53;;
6269;SDS011;3168;51.684;6.954;2022-08-03T14:39:46;0.67;;;0.67;;
6269;SDS011;3168;51.684;6.954;2022-08-03T14:42:11;0.70;;;0.70;;
6269;SDS011;3168;51.684;6.954;2022-08-03T14:44:37;0.67;;;0.63;;
6269;SDS011;3168;51.684;6.954;2022-08-03T14:47:03;0.80;;;0.77;;
6269;SDS011;3168;51.684;6.954;2022-08-03T14:49:29;0.60;;;0.60;;
6269;SDS011;3168;51.684;6.954;2022-08-03T14:51:55;0.70;;;0.70;;
6269;SDS011;3168;51.684;6.954;2022-08-03T14:54:21;0.60;;;0.60;;
6269;SDS011;3168;51.684;6.954;2022-08-03T14:56:46;0.70;;;0.70;;
6269;SDS011;3168;51.684;6.954;2022-08-03T14:59:12;0.50;;;0.50;;
6269;SDS011;3168;51.684;6.954;2022-08-03T15:01:38;1.90;;;0.80;;
6269;SDS011;3168;51.684;6.954;2022-08-03T15:04:04;0.60;;;0.60;;
6269;SDS011;3168;51.684;6.954;2022-08-03T15:06:31;0.80;;;0.80;;
6269;SDS011;3168;51.684;6.954;2022-08-03T15:08:57;0.60;;;0.60;;
6269;SDS011;3168;51.684;6.954;2022-08-03T15:11:23;0.80;;;0.80;;
6269;SDS011;3168;51.684;6.954;2022-08-03T15:13:50;0.80;;;0.80;;
6269;SDS011;3168;51.684;6.954;2022-08-03T15:16:16;0.60;;;0.60;;
6269;SDS011;3168;51.684;6.954;2022-08-03T15:18:41;1.07;;;0.70;;
6269;SDS011;3168;51.684;6.954;2022-08-03T15:21:07;0.70;;;0.70;;
6269;SDS011;3168;51.684;6.954;2022-08-03T15:23:33;0.77;;;0.77;;
6269;SDS011;3168;51.684;6.954;2022-08-03T15:25:59;0.63;;;0.63;;
6269;SDS011;3168;51.684;6.954;2022-08-03T15:28:25;0.67;;;0.67;;
6269;SDS011;3168;51.684;6.954;2022-08-03T15:30:52;0.80;;;0.80;;
6269;SDS011;3168;51.684;6.954;2022-08-03T15:33:17;0.70;;;0.70;;
6269;SDS011;3168;51.684;6.954;2022-08-03T15:35:43;0.87;;;0.87;;
6269;SDS011;3168;51.684;6.954;2022-08-03T15:38:09;1.53;;;0.60;;
6269;SDS011;3168;51.684;6.954;2022-08-03T15:40:35;2.50;;;0.70;;
6269;SDS011;3168;51.684;6.954;2022-08-03T15:43:01;0.70;;;0.70;;
6269;SDS011;3168;51.684;6.954;2022-08-03T15:45:27;0.60;;;0.60;;
6269;SDS011;3168;51.684;6.954;2022-08-03T15:47:53;1.00;;;1.00;;
6269;SDS011;3168;51.684;6.954;2022-08-03T15:50:19;2.50;;;0.67;;
6269;SDS011;3168;51.684;6.954;2022-08-03T15:52:45;2.40;;;0.60;;
6269;SDS011;3168;51.684;6.954;2022-08-03T15:55:11;1.23;;;0.70;;
6269;SDS011;3168;51.684;6.954;2022-08-03T15:57:37;0.60;;;0.60;;
6269;SDS011;3168;51.684;6.954;2022-08-03T16:00:05;0.60;;;0.60;;
6269;SDS011;3168;51.684;6.954;2022-08-03T16:02:31;0.60;;;0.60;;
6269;SDS011;3168;51.684;6.954;2022-08-03T16:04:57;0.73;;;0.73;;
6269;SDS011;3168;51.684;6.954;2022-08-03T16:07:23;0.63;;;0.63;;
6269;SDS011;3168;51.684;6.954;2022-08-03T16:09:55;2.30;;;0.77;;
6269;SDS011;3168;51.684;6.954;2022-08-03T16:12:20;0.80;;;0.80;;
6269;SDS011;3168;51.684;6.954;2022-08-03T16:14:46;0.93;;;0.60;;
6269;SDS011;3168;51.684;6.954;2022-08-03T16:17:12;1.93;;;0.90;;
6269;SDS011;3168;51.684;6.954;2022-08-03T16:19:38;0.67;;;0.67;;
6269;SDS011;3168;51.684;6.954;2022-08-03T16:22:04;1.33;;;1.00;;
6269;SDS011;3168;51.684;6.954;2022-08-03T16:24:30;1.10;;;1.00;;
6269;SDS011;3168;51.684;6.954;2022-08-03T16:26:56;0.80;;;0.80;;
6269;SDS011;3168;51.684;6.954;2022-08-03T16:29:22;2.40;;;0.90;;
6269;SDS011;3168;51.684;6.954;2022-08-03T16:31:48;2.83;;;0.70;;
6269;SDS011;3168;51.684;6.954;2022-08-03T16:34:13;1.80;;;0.70;;